Time;durP1;ratioP1;P1;durP2;ratioP2;P2;SDS_P1;SDS_P2;PMS_P1;PMS_P2;Temp;Humidity;BMP_temperature;BMP_pressure;BME280_temperature;BME280_humidity;BME280_pressure;Samples;Min_cycle;Max_cycle;Signal;HPM_P1;HPM_P2
2021/12/07 00:04:47;;;;;;;65.77;25.17;;;0.30;99.90;;;;;;10218278;29;20039;-86
2021/12/07 00:09:50;;;;;;;67.50;24.70;;;0.30;99.90;;;;;;10208656;29;20073;-87
2021/12/07 00:14:55;;;;;;;62.03;23.77;;;0.30;99.90;;;;;;10210143;29;20023;-86
2021/12/07 00:19:58;;;;;;;57.83;21.48;;;0.30;99.90;;;;;;10208073;29;20038;-86
2021/12/07 00:24:58;;;;;;;63.07;21.47;;;0.20;99.90;;;;;;10212928;29;20028;-87
2021/12/07 00:29:59;;;;;;;46.63;18.53;;;0.10;99.90;;;;;;10215875;29;20468;-86
2021/12/07 00:35:21;;;;;;;53.83;20.03;;;0.10;99.90;;;;;;10238444;29;20064;-86
2021/12/07 00:40:23;;;;;;;58.33;22.50;;;0.00;99.90;;;;;;10220755;29;20115;-85
2021/12/07 00:45:25;;;;;;;56.57;20.33;;;0.00;99.90;;;;;;10210558;29;20039;-86
2021/12/07 00:50:27;;;;;;;51.83;18.97;;;0.00;99.90;;;;;;10229753;29;20023;-86
2021/12/07 00:55:29;;;;;;;42.97;16.70;;;0.00;99.90;;;;;;10223903;28;20031;-86
2021/12/07 01:00:30;;;;;;;46.77;17.73;;;0.00;99.90;;;;;;10230710;28;20132;-86
2021/12/07 01:05:34;;;;;;;45.03;16.27;;;0.10;99.90;;;;;;10208242;29;20035;-86
2021/12/07 01:26:33;;;;;;;50.07;18.67;;;-0.10;99.90;;;;;;10218463;29;20052;-86
2021/12/07 01:31:53;;;;;;;55.20;20.53;;;-0.10;99.90;;;;;;10212817;29;20035;-85
2021/12/07 01:47:54;;;;;;;63.67;22.43;;;-0.10;99.90;;;;;;10224835;29;20403;-85
2021/12/07 02:03:18;;;;;;;68.67;22.97;;;-0.10;99.90;;;;;;10207495;29;20512;-85
2021/12/07 02:08:21;;;;;;;67.80;20.73;;;-0.10;99.90;;;;;;10231247;29;20081;-86
2021/12/07 02:18:32;;;;;;;75.93;24.83;;;-0.10;99.90;;;;;;10215085;29;20520;-86
2021/12/07 02:23:32;;;;;;;75.60;26.00;;;-0.10;99.90;;;;;;10214651;29;20091;-86
2021/12/07 02:28:38;;;;;;;75.03;24.87;;;0.00;99.90;;;;;;10213085;29;20050;-86
2021/12/07 02:33:39;;;;;;;78.22;25.33;;;0.00;99.90;;;;;;10240863;29;20028;-85
2021/12/07 02:38:40;;;;;;;84.03;27.07;;;0.00;99.90;;;;;;10234149;29;20060;-85
2021/12/07 02:43:41;;;;;;;85.57;27.30;;;0.00;99.90;;;;;;10212346;29;20020;-86
2021/12/07 02:48:41;;;;;;;87.27;30.17;;;0.00;99.90;;;;;;10214933;29;20596;-85
2021/12/07 02:53:43;;;;;;;89.03;27.07;;;-0.10;99.90;;;;;;10211958;29;20023;-85
2021/12/07 02:58:44;;;;;;;79.20;25.03;;;-0.10;99.90;;;;;;10229533;29;20086;-86
2021/12/07 03:30:51;;;;;;;84.60;25.67;;;-0.30;99.90;;;;;;10215182;29;20122;-86
2021/12/07 03:35:52;;;;;;;80.27;27.67;;;-0.20;99.90;;;;;;10210940;29;20098;-85
2021/12/07 03:40:53;;;;;;;79.13;26.20;;;-0.20;99.90;;;;;;10210995;29;20704;-86
2021/12/07 03:45:54;;;;;;;76.90;27.07;;;-0.20;99.90;;;;;;10210890;29;20036;-85
2021/12/07 03:50:55;;;;;;;78.03;26.10;;;-0.20;99.90;;;;;;10211533;29;20023;-86
2021/12/07 03:55:57;;;;;;;79.20;24.47;;;-0.20;99.90;;;;;;10218557;29;20360;-87
2021/12/07 04:00:58;;;;;;;81.10;26.97;;;-0.10;99.90;;;;;;10211496;29;20127;-86
2021/12/07 04:06:04;;;;;;;74.67;25.00;;;-0.20;99.90;;;;;;10219982;29;20031;-87
2021/12/07 04:11:05;;;;;;;75.15;24.45;;;-0.20;99.90;;;;;;10211297;29;20035;-86
2021/12/07 04:16:08;;;;;;;89.23;26.20;;;-0.20;99.90;;;;;;10230867;29;20516;-85
2021/12/07 04:21:09;;;;;;;70.97;24.83;;;-0.20;99.90;;;;;;10214148;29;20023;-88
2021/12/07 04:26:11;;;;;;;77.20;27.10;;;-0.20;99.90;;;;;;10209153;29;20476;-86
2021/12/07 04:31:13;;;;;;;75.43;25.83;;;-0.30;99.90;;;;;;10209275;29;20031;-88
2021/12/07 04:36:14;;;;;;;80.60;26.03;;;-0.30;99.90;;;;;;10209843;29;20131;-85
2021/12/07 04:41:15;;;;;;;82.37;27.27;;;-0.30;99.90;;;;;;10209048;29;20042;-87
2021/12/07 04:46:31;;;;;;;74.10;25.33;;;-0.30;99.90;;;;;;10220815;29;20036;-88
2021/12/07 05:02:11;;;;;;;83.53;26.73;;;-0.30;99.90;;;;;;10232843;29;20051;-85
2021/12/07 05:07:22;;;;;;;95.90;27.13;;;-0.20;99.90;;;;;;10236781;29;20515;-85
2021/12/07 05:12:33;;;;;;;115.40;32.17;;;-0.20;99.90;;;;;;10221604;29;20371;-86
2021/12/07 05:38:41;;;;;;;118.47;33.83;;;-0.30;99.90;;;;;;10207477;29;20455;-84
2021/12/07 05:43:41;;;;;;;93.47;29.23;;;-0.30;99.90;;;;;;10206257;29;20031;-85
2021/12/07 05:48:42;;;;;;;88.40;27.37;;;-0.30;99.90;;;;;;10205487;29;20478;-85
2021/12/07 05:53:43;;;;;;;97.77;30.77;;;-0.40;99.90;;;;;;10210940;29;20024;-85
2021/12/07 05:58:44;;;;;;;105.13;32.17;;;-0.40;99.90;;;;;;10215109;29;20087;-85
2021/12/07 06:03:44;;;;;;;99.93;29.17;;;-0.40;99.90;;;;;;10215881;29;20031;-85
2021/12/07 06:08:45;;;;;;;92.03;30.00;;;-0.40;99.90;;;;;;10215045;29;20122;-85
2021/12/07 06:13:46;;;;;;;91.83;29.47;;;-0.40;99.90;;;;;;10214625;29;20075;-85
2021/12/07 06:18:47;;;;;;;87.70;27.57;;;-0.50;99.90;;;;;;10213887;29;20032;-85
2021/12/07 06:23:48;;;;;;;78.23;26.67;;;-0.50;99.90;;;;;;10214880;29;20105;-85
2021/12/07 06:28:48;;;;;;;85.47;27.70;;;-0.60;99.90;;;;;;10214081;29;20035;-85
2021/12/07 06:33:49;;;;;;;86.30;30.10;;;-0.60;99.90;;;;;;10214459;29;20027;-85
2021/12/07 06:38:51;;;;;;;103.97;30.93;;;-0.60;99.90;;;;;;10213765;29;20174;-85
2021/12/07 06:43:51;;;;;;;90.47;28.33;;;-0.60;99.90;;;;;;10214246;29;20040;-85
2021/12/07 06:48:52;;;;;;;93.80;32.00;;;-0.50;99.90;;;;;;10213787;29;20043;-85
2021/12/07 06:53:53;;;;;;;99.60;30.37;;;-0.60;99.90;;;;;;10211936;29;20046;-85
2021/12/07 06:58:54;;;;;;;92.33;29.63;;;-0.50;99.90;;;;;;10213932;29;20106;-85
2021/12/07 07:03:54;;;;;;;91.33;28.17;;;-0.50;99.90;;;;;;10212276;29;20512;-86
2021/12/07 07:08:55;;;;;;;96.17;31.30;;;-0.50;99.90;;;;;;10213360;29;20039;-85
2021/12/07 07:13:56;;;;;;;98.57;30.53;;;-0.50;99.90;;;;;;10212751;29;20115;-85
2021/12/07 07:18:57;;;;;;;88.20;30.40;;;-0.50;99.90;;;;;;10212754;29;20027;-84
2021/12/07 07:23:58;;;;;;;91.63;31.20;;;-0.50;99.90;;;;;;10211507;29;20027;-85
2021/12/07 07:28:58;;;;;;;100.70;33.00;;;-0.50;99.90;;;;;;10210893;29;20032;-85
2021/12/07 07:33:59;;;;;;;84.60;30.20;;;-0.40;99.90;;;;;;10212231;29;20115;-85
2021/12/07 07:39:00;;;;;;;83.00;26.63;;;-0.50;99.90;;;;;;10211963;29;20572;-85
2021/12/07 07:44:00;;;;;;;81.23;28.07;;;-0.40;99.90;;;;;;10211470;29;20024;-85
2021/12/07 07:49:02;;;;;;;79.67;26.10;;;-0.40;99.90;;;;;;10211635;29;20379;-85
2021/12/07 07:54:04;;;;;;;79.13;26.80;;;-0.40;99.90;;;;;;10211291;29;20034;-85
2021/12/07 07:59:05;;;;;;;89.93;29.00;;;-0.40;99.90;;;;;;10211202;29;20490;-84
2021/12/07 08:04:05;;;;;;;83.90;26.77;;;-0.30;99.90;;;;;;10210923;29;20027;-85
2021/12/07 08:09:08;;;;;;;83.40;25.83;;;-0.30;99.90;;;;;;10210582;29;20040;-84
2021/12/07 08:14:09;;;;;;;73.70;26.47;;;-0.30;99.90;;;;;;10210033;29;20476;-84
2021/12/07 08:19:09;;;;;;;90.33;28.47;;;-0.30;99.90;;;;;;10210087;29;20062;-85
2021/12/07 08:24:10;;;;;;;89.63;28.13;;;-0.30;99.90;;;;;;10208795;29;20484;-85
2021/12/07 08:29:11;;;;;;;81.40;25.00;;;-0.30;99.90;;;;;;10210377;29;20035;-85
2021/12/07 08:34:11;;;;;;;80.17;25.37;;;-0.20;99.90;;;;;;10208041;29;20463;-85
2021/12/07 08:39:13;;;;;;;73.57;24.63;;;-0.20;99.90;;;;;;10209851;29;20056;-85
2021/12/07 08:44:13;;;;;;;82.77;27.17;;;-0.20;99.90;;;;;;10209521;29;20432;-85
2021/12/07 08:49:15;;;;;;;82.60;26.30;;;-0.20;99.90;;;;;;10207975;29;20082;-85
2021/12/07 08:54:26;;;;;;;97.80;30.37;;;-0.20;99.90;;;;;;10207506;29;20015;-85
2021/12/07 08:59:44;;;;;;;92.07;30.23;;;-0.20;99.90;;;;;;10209467;29;20360;-85
2021/12/07 09:04:45;;;;;;;88.33;29.70;;;-0.10;99.90;;;;;;10208767;29;20030;-85
2021/12/07 09:09:46;;;;;;;87.80;29.93;;;-0.10;99.90;;;;;;10207388;29;20044;-84
2021/12/07 09:14:48;;;;;;;79.30;27.17;;;0.00;99.90;;;;;;10208700;29;20032;-85
2021/12/07 09:19:49;;;;;;;81.23;30.17;;;0.10;99.90;;;;;;10208490;29;20043;-85
2021/12/07 09:24:50;;;;;;;84.47;28.13;;;0.10;99.90;;;;;;10208149;29;20050;-85
2021/12/07 09:29:51;;;;;;;94.93;30.80;;;0.20;99.90;;;;;;10207962;29;20046;-85
2021/12/07 09:34:52;;;;;;;96.87;33.83;;;0.30;99.90;;;;;;10210079;29;20035;-85
2021/12/07 09:39:52;;;;;;;79.87;27.83;;;0.30;99.90;;;;;;10217011;29;20577;-85
2021/12/07 09:44:53;;;;;;;83.30;29.13;;;0.30;99.90;;;;;;10207422;29;20027;-85
2021/12/07 09:49:54;;;;;;;87.43;26.17;;;0.20;99.90;;;;;;10222141;29;20035;-84
2021/12/07 09:54:55;;;;;;;83.90;25.77;;;0.10;99.90;;;;;;10207149;29;20042;-85
2021/12/07 09:59:56;;;;;;;69.37;26.30;;;0.10;99.90;;;;;;10207515;29;20043;-85
2021/12/07 10:04:57;;;;;;;89.53;26.40;;;0.20;99.90;;;;;;10207240;29;20356;-85
2021/12/07 10:09:58;;;;;;;89.00;28.43;;;0.20;99.90;;;;;;10207218;29;20040;-85
2021/12/07 10:15:08;;;;;;;98.70;28.70;;;0.20;99.90;;;;;;10206957;29;20385;-85
2021/12/07 10:20:44;;;;;;;90.27;32.43;;;0.20;99.90;;;;;;10206959;29;20420;-85
2021/12/07 10:25:54;;;;;;;94.05;28.10;;;0.10;99.90;;;;;;10157486;29;20502;-84
2021/12/07 10:30:59;;;;;;;89.23;30.27;;;0.00;99.90;;;;;;10207207;29;20028;-84
2021/12/07 10:36:11;;;;;;;152.85;62.25;;;-0.10;99.90;;;;;;10206862;29;20027;-85
2021/12/07 10:41:15;;;;;;;119.77;49.37;;;-0.10;99.90;;;;;;10212971;29;20018;-85
2021/12/07 10:46:28;;;;;;;78.03;27.23;;;-0.20;99.90;;;;;;10214136;29;20028;-85
2021/12/07 10:51:29;;;;;;;85.30;30.00;;;-0.20;99.90;;;;;;10213956;29;20451;-84
2021/12/07 10:56:36;;;;;;;82.90;27.13;;;-0.20;99.90;;;;;;10212592;29;20075;-85
2021/12/07 11:01:39;;;;;;;96.57;36.17;;;-0.30;99.90;;;;;;10213065;29;20454;-85
2021/12/07 11:07:08;;;;;;;206.07;75.43;;;-0.20;99.90;;;;;;10213584;29;20039;-85
2021/12/07 11:12:12;;;;;;;326.13;146.73;;;-0.20;99.90;;;;;;10212464;29;20031;-85
2021/12/07 11:17:13;;;;;;;115.17;42.57;;;-0.20;99.90;;;;;;10212838;29;20578;-85
2021/12/07 11:22:17;;;;;;;475.70;247.93;;;-0.30;99.90;;;;;;10212214;29;20090;-84
2021/12/07 11:32:44;;;;;;;79.00;26.90;;;-0.20;99.90;;;;;;10212960;29;20489;-84
2021/12/07 11:37:45;;;;;;;81.70;30.50;;;-0.20;99.90;;;;;;10212459;29;20062;-84
2021/12/07 11:42:46;;;;;;;88.83;31.67;;;-0.20;99.90;;;;;;10212355;29;20023;-85
2021/12/07 11:47:50;;;;;;;96.23;35.00;;;-0.10;99.90;;;;;;10211476;29;20091;-85
2021/12/07 11:52:55;;;;;;;75.60;27.77;;;-0.10;99.90;;;;;;10226132;28;20028;-85
2021/12/07 11:57:56;;;;;;;76.83;26.80;;;-0.10;99.90;;;;;;10211069;29;20034;-84
2021/12/07 12:02:57;;;;;;;64.47;24.80;;;0.00;99.90;;;;;;10225704;29;20478;-84
2021/12/07 12:07:59;;;;;;;68.90;25.30;;;0.00;99.90;;;;;;10210532;29;20597;-84
2021/12/07 12:13:11;;;;;;;82.23;29.17;;;-0.10;99.90;;;;;;10210334;29;20057;-84
2021/12/07 12:18:35;;;;;;;69.60;25.80;;;0.00;99.90;;;;;;10210470;29;20461;-84
2021/12/07 12:23:48;;;;;;;62.73;24.57;;;0.10;99.90;;;;;;10210181;29;20353;-84
2021/12/07 12:28:49;;;;;;;104.47;42.57;;;0.10;99.90;;;;;;10210348;29;20043;-84
2021/12/07 12:33:57;;;;;;;361.23;116.40;;;0.20;99.90;;;;;;10209698;29;20020;-85
2021/12/07 12:39:04;;;;;;;69.03;29.67;;;0.20;99.90;;;;;;10209839;29;20522;-84
2021/12/07 12:44:13;;;;;;;393.40;168.90;;;0.00;99.90;;;;;;10209347;29;20059;-84
2021/12/07 12:49:16;;;;;;;207.53;78.60;;;0.00;99.90;;;;;;10209696;29;20522;-84
2021/12/07 12:54:18;;;;;;;185.40;68.00;;;0.00;99.90;;;;;;10224061;29;20406;-84
2021/12/07 12:59:21;;;;;;;221.27;85.63;;;-0.10;99.90;;;;;;10208987;29;20062;-84
2021/12/07 13:04:26;;;;;;;218.13;78.23;;;0.00;99.90;;;;;;10208026;29;20026;-84
2021/12/07 13:09:31;;;;;;;110.03;45.77;;;-0.10;99.90;;;;;;10208783;29;20040;-84
2021/12/07 13:14:34;;;;;;;80.53;33.97;;;-0.20;99.90;;;;;;10223028;29;20035;-84
2021/12/07 13:20:13;;;;;;;425.33;184.40;;;-0.20;99.90;;;;;;10208027;29;20032;-84
2021/12/07 13:25:19;;;;;;;123.83;42.90;;;-0.30;99.90;;;;;;10199144;29;20464;-85
2021/12/07 13:30:20;;;;;;;115.40;48.60;;;-0.30;99.90;;;;;;10208203;29;20063;-85
2021/12/07 13:35:30;;;;;;;88.63;36.60;;;-0.20;99.90;;;;;;10234171;29;20047;-86
2021/12/07 13:40:30;;;;;;;63.90;25.60;;;-0.20;99.90;;;;;;10218312;29;20091;-87
2021/12/07 13:45:31;;;;;;;66.77;24.17;;;-0.20;99.90;;;;;;10242507;29;20113;-87
2021/12/07 13:50:32;;;;;;;72.73;26.60;;;-0.20;99.90;;;;;;10239483;28;20038;-87
2021/12/07 13:55:36;;;;;;;84.70;29.03;;;-0.20;99.90;;;;;;10242072;29;20120;-86
2021/12/07 14:00:37;;;;;;;94.03;35.10;;;-0.20;99.90;;;;;;10223803;28;20027;-87
2021/12/07 14:05:43;;;;;;;85.23;31.27;;;-0.20;99.90;;;;;;10246756;29;20058;-86
2021/12/07 14:10:52;;;;;;;84.00;30.58;;;-0.20;99.90;;;;;;10234409;28;20031;-88
2021/12/07 14:15:53;;;;;;;75.23;28.77;;;-0.20;99.90;;;;;;10213039;29;20083;-86
2021/12/07 14:20:59;;;;;;;73.90;26.60;;;-0.30;99.90;;;;;;10242697;28;20039;-85
2021/12/07 14:26:02;;;;;;;82.47;28.00;;;-0.30;99.90;;;;;;10250771;28;20035;-86
2021/12/07 14:31:17;;;;;;;92.57;33.53;;;-0.20;99.90;;;;;;10222263;28;20027;-86
2021/12/07 14:36:27;;;;;;;87.47;34.53;;;-0.30;99.90;;;;;;10244252;28;20039;-85
2021/12/07 14:41:28;;;;;;;88.03;33.03;;;-0.20;99.90;;;;;;10231592;28;20031;-87
2021/12/07 14:46:29;;;;;;;86.30;31.07;;;-0.20;99.90;;;;;;10220825;29;20059;-87
2021/12/07 14:51:32;;;;;;;92.53;30.53;;;-0.30;99.90;;;;;;10247841;29;20113;-86
2021/12/07 14:56:35;;;;;;;83.20;30.97;;;-0.30;99.90;;;;;;10249884;28;20031;-88
2021/12/07 15:01:48;;;;;;;75.40;28.07;;;-0.30;99.90;;;;;;10249106;28;20118;-90
2021/12/07 15:07:01;;;;;;;77.43;27.90;;;-0.30;99.90;;;;;;10235167;28;20031;-87
2021/12/07 15:12:10;;;;;;;69.93;25.73;;;-0.40;99.90;;;;;;10244101;29;20464;-90
2021/12/07 15:17:11;;;;;;;92.50;30.90;;;-0.40;99.90;;;;;;10229360;28;20026;-87
2021/12/07 15:22:14;;;;;;;90.23;30.27;;;-0.50;99.90;;;;;;10213772;28;20043;-87
2021/12/07 15:27:22;;;;;;;86.03;30.70;;;-0.50;99.90;;;;;;10233120;28;20492;-88
2021/12/07 15:32:24;;;;;;;87.00;33.63;;;-0.50;99.90;;;;;;10243345;29;20031;-89
2021/12/07 15:37:27;;;;;;;103.00;34.13;;;-0.50;99.90;;;;;;10235382;28;20055;-90
2021/12/07 15:42:33;;;;;;;99.87;34.77;;;-0.50;99.90;;;;;;10243285;29;20023;-89
2021/12/07 15:47:40;;;;;;;99.73;37.50;;;-0.50;99.90;;;;;;10218053;29;20603;-89
2021/12/07 15:52:46;;;;;;;105.97;36.77;;;-0.50;99.90;;;;;;10227352;29;20019;-89
2021/12/07 15:57:56;;;;;;;118.53;38.28;;;-0.50;99.90;;;;;;10234972;29;20059;-89
2021/12/07 16:02:58;;;;;;;94.57;33.33;;;-0.50;99.90;;;;;;10247079;29;20077;-89
2021/12/07 16:08:06;;;;;;;104.30;34.93;;;-0.60;99.90;;;;;;10250354;28;20486;-89
2021/12/07 16:13:09;;;;;;;90.83;34.37;;;-0.60;99.90;;;;;;10251444;28;20167;-89
2021/12/07 16:18:11;;;;;;;102.77;35.37;;;-0.60;99.90;;;;;;10248614;29;20057;-89
2021/12/07 16:23:12;;;;;;;111.23;38.90;;;-0.50;99.90;;;;;;10248086;28;20031;-89
2021/12/07 16:28:15;;;;;;;107.83;37.53;;;-0.60;99.90;;;;;;10225519;29;20128;-89
2021/12/07 16:33:16;;;;;;;108.33;39.13;;;-0.50;99.90;;;;;;10230059;29;20604;-85
2021/12/07 16:38:17;;;;;;;105.53;38.83;;;-0.60;99.90;;;;;;10221638;28;20043;-89
2021/12/07 16:43:18;;;;;;;118.70;41.23;;;-0.60;99.90;;;;;;10234375;29;20027;-88
2021/12/07 16:48:19;;;;;;;122.53;45.73;;;-0.60;99.90;;;;;;10210040;29;20527;-87
2021/12/07 16:53:20;;;;;;;134.27;47.60;;;-0.60;99.90;;;;;;10208756;28;20027;-89
2021/12/07 16:58:21;;;;;;;122.03;43.27;;;-0.60;99.90;;;;;;10216161;28;20016;-88
2021/12/07 17:03:23;;;;;;;167.33;50.63;;;-0.60;99.90;;;;;;10213343;28;20059;-88
2021/12/07 17:08:23;;;;;;;133.50;44.60;;;-0.60;99.90;;;;;;10222538;28;20087;-88
2021/12/07 17:13:24;;;;;;;146.57;48.17;;;-0.60;99.90;;;;;;10228881;29;20527;-88
2021/12/07 17:18:25;;;;;;;224.27;83.67;;;-0.60;99.90;;;;;;10246429;28;20035;-88
2021/12/07 17:23:26;;;;;;;273.53;122.37;;;-0.60;99.90;;;;;;10237487;28;20543;-88
2021/12/07 17:28:26;;;;;;;140.40;56.57;;;-0.60;99.90;;;;;;10238820;28;20095;-87
2021/12/07 17:33:28;;;;;;;115.27;41.27;;;-0.60;99.90;;;;;;10221757;28;20035;-87
2021/12/07 17:38:29;;;;;;;157.33;61.93;;;-0.60;99.90;;;;;;10229870;28;20447;-87
2021/12/07 17:43:30;;;;;;;172.77;66.83;;;-0.60;99.90;;;;;;10218960;28;20046;-88
2021/12/07 17:48:31;;;;;;;870.33;405.83;;;-0.60;99.90;;;;;;10209776;28;20470;-88
2021/12/07 17:53:47;;;;;;;432.03;188.90;;;-0.60;99.90;;;;;;10211146;28;20028;-88
2021/12/07 17:59:31;;;;;;;159.27;54.33;;;-0.60;99.90;;;;;;10216224;28;20042;-88
2021/12/07 18:22:33;;;;;;;236.80;79.77;;;-0.70;99.90;;;;;;10219152;29;20031;-89
2021/12/07 18:33:37;;;;;;;204.70;74.13;;;-0.70;99.90;;;;;;10221863;29;20043;-88
2021/12/07 18:38:45;;;;;;;180.97;73.67;;;-0.70;99.90;;;;;;10222912;28;20051;-91
2021/12/07 18:43:46;;;;;;;145.27;50.47;;;-0.60;99.90;;;;;;10216927;29;20036;-89
2021/12/07 18:54:45;;;;;;;;;;;-0.60;99.90;;;;;;11277597;23;20083;-88
2021/12/07 18:59:57;;;;;;;112.40;34.80;;;-0.60;99.90;;;;;;10197491;29;20275;-89
2021/12/07 19:04:58;;;;;;;128.07;42.87;;;-0.50;99.90;;;;;;10210562;29;20030;-91
2021/12/07 19:10:40;;;;;;;110.87;35.97;;;-0.50;99.90;;;;;;10209391;29;20042;-87
2021/12/07 19:16:00;;;;;;;113.20;34.30;;;-0.50;99.90;;;;;;10185476;29;20047;-85
2021/12/07 19:21:03;;;;;;;128.03;37.97;;;-0.60;99.90;;;;;;10186010;29;20028;-85
2021/12/07 19:26:07;;;;;;;104.20;36.37;;;-0.60;99.90;;;;;;10179408;29;20036;-86
2021/12/07 19:31:08;;;;;;;138.00;43.67;;;-0.60;99.90;;;;;;10171344;29;20043;-85
2021/12/07 19:36:09;;;;;;;312.27;73.33;;;-0.60;99.90;;;;;;10167205;29;20036;-84
2021/12/07 19:41:10;;;;;;;140.63;46.17;;;-0.60;99.90;;;;;;10165789;29;20035;-84
2021/12/07 19:46:11;;;;;;;142.00;46.93;;;-0.60;99.90;;;;;;10188024;29;20047;-85
2021/12/07 19:51:18;;;;;;;124.43;41.67;;;-0.60;99.90;;;;;;10197097;29;20036;-86
2021/12/07 19:56:23;;;;;;;125.90;42.13;;;-0.60;99.90;;;;;;10209728;29;20059;-90
2021/12/07 20:01:25;;;;;;;133.57;40.93;;;-0.60;99.90;;;;;;10214621;29;20463;-86
2021/12/07 20:06:29;;;;;;;113.63;35.83;;;-0.60;99.90;;;;;;10242157;28;20031;-87
2021/12/07 20:11:32;;;;;;;103.70;35.83;;;-0.60;99.90;;;;;;10208532;29;20031;-88
2021/12/07 20:16:33;;;;;;;103.00;31.87;;;-0.60;99.90;;;;;;10207284;29;20353;-87
2021/12/07 20:21:34;;;;;;;231.47;55.97;;;-0.60;99.90;;;;;;10206872;29;20023;-87
2021/12/07 20:26:35;;;;;;;98.53;33.73;;;-0.60;99.90;;;;;;10201962;29;20031;-87
2021/12/07 20:31:38;;;;;;;98.77;32.60;;;-0.60;99.90;;;;;;10208638;29;20084;-87
2021/12/07 20:36:40;;;;;;;119.97;38.50;;;-0.60;99.90;;;;;;10206251;29;20052;-89
2021/12/07 20:41:41;;;;;;;143.63;44.73;;;-0.70;99.90;;;;;;10181008;29;20412;-87
2021/12/07 20:46:44;;;;;;;129.37;41.00;;;-0.70;99.90;;;;;;10207038;29;20122;-89
2021/12/07 20:51:47;;;;;;;110.67;38.90;;;-0.70;99.90;;;;;;10209119;29;20032;-86
2021/12/07 20:56:48;;;;;;;127.83;38.57;;;-0.70;99.90;;;;;;10213698;28;20139;-86
2021/12/07 21:01:49;;;;;;;112.83;38.40;;;-0.70;99.90;;;;;;10201969;29;20471;-87
2021/12/07 21:06:50;;;;;;;117.90;39.73;;;-0.80;99.90;;;;;;10179362;29;20037;-88
2021/12/07 21:11:51;;;;;;;114.87;34.30;;;-0.80;99.90;;;;;;10208236;29;20028;-86
2021/12/07 21:16:52;;;;;;;94.67;31.77;;;-0.80;99.90;;;;;;10207636;29;20040;-87
2021/12/07 21:21:52;;;;;;;119.80;35.33;;;-0.80;99.90;;;;;;10193494;29;20079;-87
2021/12/07 21:26:53;;;;;;;116.03;35.30;;;-0.80;99.90;;;;;;10203757;29;20070;-86
2021/12/07 21:31:56;;;;;;;116.97;39.53;;;-0.80;99.90;;;;;;10198525;29;20055;-87
2021/12/07 21:36:57;;;;;;;131.13;36.87;;;-0.80;99.90;;;;;;10206336;29;20755;-87
2021/12/07 21:41:59;;;;;;;125.50;37.53;;;-0.80;99.90;;;;;;10206617;29;20435;-87
2021/12/07 21:46:59;;;;;;;144.90;40.63;;;-0.80;99.90;;;;;;10205098;29;20028;-87
2021/12/07 21:52:00;;;;;;;140.10;41.80;;;-0.90;99.90;;;;;;10190007;29;20031;-86
2021/12/07 21:57:01;;;;;;;150.90;44.13;;;-0.80;99.90;;;;;;10206917;29;20063;-87
2021/12/07 22:02:04;;;;;;;152.80;43.93;;;-0.80;99.90;;;;;;10205201;29;20059;-87
2021/12/07 22:07:05;;;;;;;142.53;39.20;;;-0.80;99.90;;;;;;10190591;29;20127;-87
2021/12/07 22:12:07;;;;;;;149.80;44.70;;;-0.80;99.90;;;;;;10207274;29;20126;-87
2021/12/07 22:17:08;;;;;;;156.80;45.97;;;-0.80;99.90;;;;;;10206621;29;20030;-87
2021/12/07 22:22:09;;;;;;;147.77;42.17;;;-0.90;99.90;;;;;;10206344;29;20026;-87
2021/12/07 22:27:11;;;;;;;167.97;48.77;;;-0.90;99.90;;;;;;10205185;29;20028;-87
2021/12/07 22:32:12;;;;;;;147.37;43.40;;;-0.80;99.90;;;;;;10205420;29;20087;-87
2021/12/07 22:37:13;;;;;;;137.27;43.70;;;-0.80;99.90;;;;;;10211530;29;20032;-86
2021/12/07 22:42:13;;;;;;;134.03;40.63;;;-0.90;99.90;;;;;;10184700;29;20428;-85
2021/12/07 22:47:16;;;;;;;140.87;40.83;;;-0.80;99.90;;;;;;10214072;29;20051;-86
2021/12/07 22:52:18;;;;;;;116.30;35.40;;;-0.90;99.90;;;;;;10210591;29;20035;-89
2021/12/07 22:57:19;;;;;;;109.40;34.90;;;-0.90;99.90;;;;;;10179277;29;20048;-87
2021/12/07 23:02:19;;;;;;;121.60;38.63;;;-1.00;99.90;;;;;;10198100;29;20036;-87
2021/12/07 23:07:20;;;;;;;133.03;42.13;;;-1.00;99.90;;;;;;10213178;29;20036;-88
2021/12/07 23:12:21;;;;;;;130.30;40.80;;;-1.00;99.90;;;;;;10211363;29;20056;-88
2021/12/07 23:17:22;;;;;;;125.07;41.40;;;-1.00;99.90;;;;;;10196248;29;20103;-87
2021/12/07 23:22:23;;;;;;;102.33;33.40;;;-1.00;99.90;;;;;;10174163;29;20043;-89
2021/12/07 23:27:24;;;;;;;94.50;33.07;;;-1.00;99.90;;;;;;10180051;29;20388;-87
2021/12/07 23:32:25;;;;;;;90.50;29.80;;;-1.00;99.90;;;;;;10191426;29;20035;-88
2021/12/07 23:37:25;;;;;;;82.90;29.37;;;-1.00;99.90;;;;;;10209912;29;20095;-89
2021/12/07 23:42:26;;;;;;;86.87;30.77;;;-1.00;99.90;;;;;;10209927;29;20044;-87
2021/12/07 23:47:27;;;;;;;90.43;30.07;;;-1.10;99.90;;;;;;10211638;29;20098;-89
2021/12/07 23:52:28;;;;;;;100.93;32.30;;;-1.10;99.90;;;;;;10210634;29;20050;-87
2021/12/07 23:57:29;;;;;;;111.80;33.47;;;-1.10;99.90;;;;;;10208268;29;20051;-86
